• Join FlightAware (Why Join?)
  • Login
  • US Flag 
02:01AM EDT


 

Airport Tracker/Info


-or-


 

Live Flight TrackerFlight Track Log ✈ ASQ5678 ✈ 01-May-2013 ✈ KEWR - KCVG

Flight Track Log - Related Links

Times and Time Zones

All times are in EDT time to prevent confusion due to time zone crossing. See the ASQ5678 flight status page for this flight to view local times or setup timezone preferences in your user account.

Time Position Orientation Groundspeed Altitude Reporting Facility
EDT Latitude Longitude Course Direction KTS MPH feet Rate Location/Type
03:46PM 40.6667 -74.1833 270° West 154 177 1,200  Level New York TRACON
03:47PM 40.6333 -74.2167 217° Southwest 240 276 3,300 2,700 Climbing New York TRACON
03:48PM 40.6167 -74.3167 258° West 279 321 6,600 3,420 Climbing New York TRACON
03:49PM 40.6167 -74.4167 270° West 283 326 10,200 2,400 Climbing New York TRACON
03:50PM 40.6167 -74.5333 270° West 343 395 11,400 1,800 Climbing New York TRACON
03:51PM 40.6834 -74.8089 270° West  Level FlightAware Approximate
03:51PM 40.6358 -74.6406 283° West 360 414 13,800  Level New York Center
03:52PM 40.6833 -74.9374 270° West  Level FlightAware Approximate
03:52PM 40.6517 -74.7836 278° West 367 422 16,000  Level New York Center
03:53PM 40.6661 -74.9131 278° West 372 428 17,900 1,860 Climbing New York Center
03:54PM 40.6800 -75.0481 278° West 372 428 19,800 1,860 Climbing New York Center
03:55PM 40.6378 -75.1767 247° West 365 420 21,600 1,740 Climbing New York Center
03:56PM 40.5831 -75.3017 240° Southwest 378 435 23,300 1,680 Climbing New York Center
03:57PM 40.5236 -75.4317 239° Southwest 400 460 25,100 1,740 Climbing New York Center
03:58PM 40.4644 -75.5586 239° Southwest 405 466 26,800 1,380 Climbing New York Center
03:59PM 40.4072 -75.6853 239° Southwest 410 472 27,900 1,020 Climbing New York Center
04:00PM 40.3431 -75.8197 238° Southwest 422 486 28,900 1,140 Climbing New York Center
04:01PM 40.2839 -75.9378 237° Southwest 431 496 30,200 1,320 Climbing New York Center
04:02PM 40.2236 -76.0719 240° Southwest 436 502 31,700 1,740 Climbing New York Center
04:03PM 40.1606 -76.2194 241° Southwest 436 502 33,800 2,100 Climbing New York Center
04:04PM 40.0944 -76.3444 235° Southwest 428 493 35,900 1,080 Climbing New York Center
04:05PM 40.0322 -76.4697 237° Southwest 423 487 36,000  Climbing New York Center
04:06PM 39.9733 -76.6083 241° Southwest 423 487 36,000  Level New York Center
04:07PM 39.9056 -76.7544 239° Southwest 445 512 36,000  Level New York Center
04:08PM 39.8397 -76.8947 239° Southwest 450 518 36,000  Level New York Center
04:09PM 39.8175 -77.0442 259° West 439 505 36,000  Level New York Center
04:10PM 39.8169 -77.2064 270° West 437 503 36,000  Level New York Center
04:12PM 39.7361 -77.3589 235° Southwest 418 481 36,000  Level Washington Center
04:13PM 39.6469 -77.4700 224° Southwest 424 488 36,000  Level Washington Center
04:14PM 39.5594 -77.5942 228° Southwest 450 518 36,000  Level Washington Center
04:15PM 39.4761 -77.7156 228° Southwest 455 524 36,000  Level Washington Center
04:16PM 39.3947 -77.8419 230° Southwest 461 531 36,000  Level Washington Center
04:17PM 39.3336 -77.9825 241° Southwest 456 525 36,000  Level Washington Center
04:18PM 39.2764 -78.1281 243° Southwest 451 519 36,000  Level Washington Center
04:19PM 39.2172 -78.2678 241° Southwest 451 519 36,000  Level Washington Center
04:20PM 39.1617 -78.4131 244° Southwest 451 519 36,000  Level Washington Center
04:21PM 39.1042 -78.5553 243° Southwest 451 519 36,000  Level Washington Center
04:22PM 39.0464 -78.7000 243° Southwest 446 513 36,000  Level Washington Center
04:23PM 38.9906 -78.8419 243° Southwest 446 513 36,000  Level Washington Center
04:24PM 38.9325 -78.9781 241° Southwest 446 513 36,000  Level Washington Center
04:25PM 38.8742 -79.1219 243° Southwest 446 513 36,000  Level Washington Center
04:26PM 38.8361 -79.2722 252° West 446 513 36,000  Level Washington Center
04:27PM 38.8375 -79.4322 271° West 439 505 36,000  Level Washington Center
04:28PM 38.8342 -79.5944 269° West 449 517 36,000  Level Washington Center
04:29PM 38.8314 -79.7383 269° West 455 524 36,000  Level Washington Center
04:30PM 38.8281 -79.8928 268° West 450 518 36,000 -360 Level Washington Center
04:31PM 38.8175 -80.1797 267° West 430 495 35,000 -360 Descending Indianapolis Center
04:32PM 38.8144 -80.3378 269° West 440 506 35,000  Level Indianapolis Center
04:33PM 38.8097 -80.4972 268° West 447 514 35,000  Level Indianapolis Center
04:35PM 38.7914 -80.6525 261° West 442 509 35,000  Level Indianapolis Center
04:36PM 38.7656 -80.8333 260° West 432 497 35,000 -300 Level Indianapolis Center
04:37PM 38.7447 -80.9844 260° West 430 495 34,400 -1,020 Descending Indianapolis Center
04:38PM 38.7225 -81.1408 260° West 443 510 33,000 -1,440 Descending Indianapolis Center
04:39PM 38.6997 -81.3003 260° West 451 519 31,500 -1,440 Descending Indianapolis Center
04:40PM 38.6747 -81.4706 259° West 457 526 30,100 -780 Descending Indianapolis Center
04:41PM 38.6511 -81.6342 260° West 465 535 30,000 -60 Descending Indianapolis Center
04:42PM 38.6267 -81.8014 259° West 467 537 30,000  Level Indianapolis Center
04:43PM 38.6025 -81.9644 259° West 466 536 30,000 -420 Level Indianapolis Center
04:44PM 38.5786 -82.1225 259° West 459 528 29,200 -1,380 Descending Indianapolis Center
04:45PM 38.5539 -82.2778 259° West 447 514 27,200 -2,220 Descending Indianapolis Center
04:46PM 38.5253 -82.4614 259° West 440 506 24,700 -1,560 Descending Indianapolis Center
04:47PM 38.5033 -82.6086 259° West 450 518 24,000 -540 Descending Indianapolis Center
04:48PM 38.4781 -82.7647 258° West 450 518 23,700 -1,020 Descending Indianapolis Center
04:49PM 38.4500 -82.9431 259° West 442 509 22,000 -1,560 Descending Indianapolis Center
04:50PM 38.4261 -83.0939 259° West 436 502 20,500 -1,680 Descending Indianapolis Center
04:51PM 38.3928 -83.2381 254° West 426 490 18,600 -2,040 Descending Indianapolis Center
04:52PM 38.3547 -83.3731 250° West 408 470 16,400 -1,800 Descending Indianapolis Center
04:53PM 38.3492 -83.5106 267° West 408 470 15,000 -720 Descending Indianapolis Center
04:54PM 38.4264 -83.6411 307° West 396 456 15,000 -600 Level Indianapolis Center
04:55PM 38.4983 -83.7497 310° West 399 459 13,800 -1,620 Descending Indianapolis Center
04:56PM 38.5678 -83.8536 311° West 387 445 11,700 -1,860 Descending Indianapolis Center
04:57PM 38.6339 -83.9600 309° West 383 441 10,000 -900 Descending Indianapolis Center
04:58PM 38.6875 -84.0644 303° West 360 414 9,900  Descending Indianapolis Center
04:59PM 38.7450 -84.1753 304° West 323 372 10,000 -660 Climbing Indianapolis Center
05:00PM 38.7892 -84.2619 303° West 293 337 8,600 -1,500 Descending Indianapolis Center
05:01PM 38.8336 -84.3472 304° West 285 328 7,000 -840 Descending Indianapolis Center
05:02PM 38.8786 -84.4350 303° West 290 334 6,900  Descending Indianapolis Center
05:03PM 38.9000 -84.4667 311° West 288 331 7,000 60 Climbing Cincinnati TRACON
05:04PM 38.9500 -84.5333 314° West 281 323 7,000 -120 Level Cincinnati TRACON
05:05PM 39.0333 -84.5333 360° North 276 318 6,800 -960 Descending Cincinnati TRACON
05:06PM 39.1000 -84.5333 360° North 251 289 5,200 -1,800 Descending Cincinnati TRACON